| time (UTC) | temp F | wind direction | speed MPH | gust MPH | rain 1hr in | rain 24hr in | rain mn in | humidity % | barometer mb |
| 20260904004527 | 55 | 29 | 8.0 | 13.0 | 0.01 | 0.18 | 0.18 | 84 | 1010.1 |
| 20260904003031 | 55 | 21 | 6.0 | 11.0 | 0.01 | 0.18 | 0.18 | 84 | 1010.1 |
| 20260904001528 | 56 | 34 | 7.0 | 12.0 | 0.01 | 0.18 | 0.17 | 85 | 1009.9 |
| 20260904000032 | 56 | 49 | 5.0 | 7.0 | 0.00 | 0.17 | 0.17 | 84 | 1010.0 |
| 20260903234647 | 56 | 56 | 5.0 | 10.0 | 0.00 | 0.17 | 0.17 | 81 | 1010.1 |
| 20260903233030 | 56 | 25 | 5.0 | 10.0 | 0.00 | 0.17 | 0.17 | 76 | 1010.3 |
| 20260903231531 | 58 | 330 | 5.0 | 12.0 | 0.00 | 0.17 | 0.17 | 68 | 1010.3 |
| 20260903224530 | 61 | 312 | 6.0 | 15.0 | 0.00 | 0.17 | 0.17 | 62 | 1010.3 |
| 20260903223146 | 62 | 295 | 6.0 | 14.0 | 0.00 | 0.17 | 0.17 | 60 | 1010.2 |
| 20260903221602 | 64 | 305 | 5.0 | 13.0 | 0.00 | 0.17 | 0.17 | 59 | 1010.1 |
| 20260903220107 | 64 | 38 | 3.0 | 7.0 | 0.00 | 0.17 | 0.17 | 61 | 1010.1 |
| 20260903214530 | 63 | 275 | 2.0 | 9.0 | 0.00 | 0.17 | 0.17 | 62 | 1010.2 |
| 20260903213145 | 62 | 316 | 2.0 | 5.0 | 0.00 | 0.17 | 0.17 | 64 | 1010.2 |
| 20260903211646 | 62 | 309 | 4.0 | 6.0 | 0.00 | 0.17 | 0.17 | 65 | 1010.2 |
| 20260903210105 | 61 | 282 | 5.0 | 8.0 | 0.00 | 0.17 | 0.17 | 64 | 1010.4 |
| 20260903204529 | 63 | 289 | 7.0 | 12.0 | 0.00 | 0.17 | 0.17 | 64 | 1010.4 |
| 20260903203107 | 62 | 319 | 4.0 | 12.0 | 0.00 | 0.17 | 0.17 | 65 | 1010.5 |
| 20260903200031 | 60 | 288 | 6.0 | 10.0 | 0.00 | 0.17 | 0.17 | 70 | 1010.7 |
| 20260903194532 | 60 | 321 | 5.0 | 8.0 | 0.00 | 0.17 | 0.17 | 68 | 1010.9 |
| 20260903193105 | 61 | 360 | 5.0 | 10.0 | 0.00 | 0.17 | 0.17 | 68 | 1011.0 |
| 20260903191604 | 61 | 30 | 6.0 | 11.0 | 0.00 | 0.17 | 0.17 | 75 | 1011.1 |
| 20260903190032 | 58 | 331 | 4.0 | 9.0 | 0.00 | 0.17 | 0.17 | 78 | 1011.3 |
| 20260903184531 | 57 | 332 | 4.0 | 9.0 | 0.00 | 0.17 | 0.17 | 80 | 1011.4 |
| 20260903183029 | 58 | 309 | 6.0 | 9.0 | 0.00 | 0.17 | 0.17 | 74 | 1011.4 |
| 20260903181532 | 60 | 351 | 4.0 | 7.0 | 0.00 | 0.17 | 0.17 | 73 | 1011.3 |
| 20260903180107 | 60 | 30 | 5.0 | 10.0 | 0.00 | 0.17 | 0.17 | 77 | 1011.4 |
| 20260903174528 | 58 | 56 | 4.0 | 8.0 | 0.00 | 0.17 | 0.17 | 83 | 1011.4 |
| 20260903173031 | 55 | 4 | 1.0 | 7.0 | 0.00 | 0.17 | 0.17 | 84 | 1011.4 |
| 20260903171531 | 53 | 4 | 0.0 | 4.0 | 0.00 | 0.17 | 0.17 | 89 | 1011.5 |
| 20260903164529 | 50 | 323 | 2.0 | 4.0 | 0.00 | 0.17 | 0.17 | 91 | 1011.7 |
| 20260903163030 | 50 | 318 | 2.0 | 5.0 | 0.00 | 0.17 | 0.17 | 94 | 1011.5 |
| 20260903161606 | 50 | 67 | 0.0 | 2.0 | 0.00 | 0.17 | 0.17 | 95 | 1011.6 |
| 20260903160039 | 49 | 81 | 2.0 | 4.0 | 0.00 | 0.17 | 0.17 | 95 | 1011.6 |
| 20260903153031 | 47 | 261 | 2.0 | 4.0 | 0.00 | 0.17 | 0.17 | 95 | 1011.5 |
| 20260903151605 | 47 | 139 | 1.0 | 5.0 | 0.00 | 0.17 | 0.17 | 95 | 1011.6 |
| 20260903150031 | 46 | 122 | 4.0 | 9.0 | 0.00 | 0.17 | 0.17 | 95 | 1011.5 |
| 20260903144527 | 45 | 331 | 2.0 | 5.0 | 0.00 | 0.17 | 0.17 | 100 | 1011.3 |
| 20260903141605 | 44 | 194 | 1.0 | 5.0 | 0.01 | 0.17 | 0.17 | 100 | 1011.1 |
| 20260903140028 | 44 | 292 | 0.0 | 1.0 | 0.01 | 0.17 | 0.17 | 100 | 1011.0 |
| 20260903133031 | 43 | 114 | 1.0 | 3.0 | 0.03 | 0.17 | 0.16 | 100 | 1010.8 |
| 20260903131530 | 43 | 183 | 1.0 | 4.0 | 0.03 | 0.16 | 0.16 | 100 | 1010.8 |
| 20260903124529 | 43 | 48 | 2.0 | 4.0 | 0.03 | 0.15 | 0.14 | 100 | 1010.6 |
| 20260903123031 | 42 | 157 | 2.0 | 4.0 | 0.03 | 0.14 | 0.13 | 100 | 1010.8 |
| 20260903121529 | 42 | 250 | 1.0 | 3.0 | 0.03 | 0.13 | 0.12 | 100 | 1010.7 |
| 20260903120029 | 43 | 149 | 2.0 | 4.0 | 0.03 | 0.12 | 0.12 | 100 | 1010.7 |
| 20260903114607 | 43 | 20 | 1.0 | 5.0 | 0.04 | 0.12 | 0.11 | 100 | 1010.8 |
| 20260903113030 | 43 | 157 | 3.0 | 5.0 | 0.04 | 0.11 | 0.10 | 100 | 1010.7 |
| 20260903111529 | 42 | 197 | 2.0 | 5.0 | 0.04 | 0.10 | 0.09 | 100 | 1010.6 |
| 20260903110031 | 42 | 195 | 2.0 | 4.0 | 0.04 | 0.09 | 0.08 | 100 | 1010.5 |
| 20260903104531 | 42 | 136 | 1.0 | 4.0 | 0.04 | 0.08 | 0.07 | 100 | 1010.4 |
| 20260903103032 | 43 | 326 | 0.0 | 4.0 | 0.04 | 0.07 | 0.06 | 100 | 1010.3 |
| 20260903101529 | 44 | 180 | 2.0 | 5.0 | 0.04 | 0.06 | 0.05 | 100 | 1010.2 |
| 20260903100030 | 45 | 166 | 4.0 | 6.0 | 0.04 | 0.05 | 0.04 | 100 | 1010.3 |
| 20260903094532 | 45 | 157 | 1.0 | 4.0 | 0.04 | 0.04 | 0.03 | 94 | 1010.5 |
| 20260903093030 | 45 | 281 | 0.0 | 3.0 | 0.03 | 0.03 | 0.02 | 94 | 1010.4 |
| 20260903091531 | 45 | 132 | 2.0 | 4.0 | 0.02 | 0.02 | 0.01 | 93 | 1010.4 |
| 20260903090106 | 45 | 154 | 0.0 | 3.0 | 0.01 | 0.01 | 0.00 | 93 | 1010.5 |
| 20260903084528 | 46 | 160 | 1.0 | 3.0 | 0.00 | 0.00 | 0.00 | 93 | 1010.5 |
| 20260903083032 | 46 | 157 | 2.0 | 4.0 | 0.00 | 0.00 | 0.00 | 94 | 1010.5 |
| 20260903081531 | 47 | 158 | 3.0 | 5.0 | 0.00 | 0.00 | 0.00 | 94 | 1010.4 |
| 20260903080030 | 47 | 150 | 2.0 | 4.0 | 0.00 | 0.00 | 0.00 | 100 | 1010.3 |
| 20260903074533 | 47 | 231 | 1.0 | 4.0 | 0.00 | 0.00 | 0.00 | 100 | 1010.2 |
| 20260903073031 | 47 | 199 | 1.0 | 5.0 | 0.00 | 0.00 | 0.00 | 100 | 1010.0 |
| 20260903071529 | 47 | 132 | 1.0 | 4.0 | 0.00 | 0.00 | 0.00 | 100 | 1010.1 |
| 20260903070030 | 47 | 240 | 0.0 | 2.0 | 0.00 | 0.00 | 0.00 | 100 | 1010.0 |
| 20260903064533 | 47 | 260 | 0.0 | 3.0 | 0.00 | 0.00 | 0.00 | 100 | 1010.0 |
| 20260903063029 | 47 | 3 | 1.0 | 5.0 | 0.00 | 0.00 | 0.00 | 100 | 1010.1 |
| 20260903061530 | 46 | 153 | 0.0 | 4.0 | 0.00 | 0.00 | 0.00 | 100 | 1010.1 |
| 20260903060031 | 47 | 45 | 1.0 | 6.0 | 0.00 | 0.00 | 0.00 | 100 | 1010.1 |
| 20260903054527 | 48 | 55 | 2.0 | 5.0 | 0.00 | 0.00 | 0.00 | 92 | 1010.0 |
| 20260903053105 | 48 | 324 | 0.0 | 4.0 | 0.00 | 0.00 | 0.00 | 92 | 1010.0 |
| 20260903051602 | 49 | 324 | 2.0 | 6.0 | 0.00 | 0.00 | 0.00 | 91 | 1009.8 |
| 20260903050027 | 49 | 23 | 3.0 | 5.0 | 0.00 | 0.00 | 0.00 | 89 | 1009.9 |
| 20260903044531 | 50 | 26 | 1.0 | 4.0 | 0.00 | 0.00 | 0.00 | 87 | 1009.7 |
| 20260903043106 | 52 | 151 | 3.0 | 7.0 | 0.00 | 0.00 | 0.00 | 85 | 1009.6 |
| 20260903041608 | 52 | 238 | 3.0 | 10.0 | 0.00 | 0.00 | 0.00 | 87 | 1009.5 |
| 20260903040029 | 52 | 233 | 3.0 | 7.0 | 0.00 | 0.00 | 0.00 | 88 | 1009.2 |
| 20260903034605 | 52 | 204 | 4.0 | 9.0 | 0.00 | 0.00 | 0.00 | 88 | 1009.1 |
| 20260903033031 | 52 | 220 | 3.0 | 7.0 | 0.00 | 0.00 | 0.00 | 89 | 1009.1 |
| 20260903031531 | 53 | 229 | 4.0 | 9.0 | 0.00 | 0.00 | 0.00 | 90 | 1009.1 |
| 20260903030105 | 54 | 192 | 5.0 | 9.0 | 0.00 | 0.00 | 0.00 | 93 | 1009.0 |
| 20260903023107 | 55 | 122 | 2.0 | 5.0 | 0.00 | 0.00 | 0.00 | 94 | 1008.9 |
| 20260903021529 | 55 | 356 | 0.0 | 4.0 | 0.00 | 0.00 | 0.00 | 94 | 1008.7 |
| 20260903020030 | 56 | 329 | 2.0 | 7.0 | 0.00 | 0.00 | 0.00 | 94 | 1008.4 |
| 20260903014530 | 56 | 312 | 3.0 | 6.0 | 0.00 | 0.00 | 0.00 | 93 | 1008.0 |
| 20260903013040 | 56 | 214 | 1.0 | 3.0 | 0.00 | 0.00 | 0.00 | 93 | 1008.0 |
| 20260903010032 | 56 | 270 | 0.0 | 2.0 | 0.00 | 0.00 | 0.00 | 93 | 1008.1 |